Time,TemperatureF,DewpointF,PressureIn,WindDirection,WindDirectionDegrees,WindSpeedMPH,WindSpeedGustMPH,Humidity,HourlyPrecipIn,Conditions,Clouds,dailyrainin,SolarRadiationWatts/m^2,SoftwareType,DateUTC
2013-01-15 00:23:00,57.0,-99.9,-100.00,SSW,206,9.0,15.0,-999,0.00,,,0.00,2.000000,,2013-01-15 05:23:00,
2013-01-15 00:33:00,57.0,-99.9,-100.00,SSW,206,9.0,15.0,-999,0.00,,,0.00,2.000000,,2013-01-15 05:33:00,
2013-01-15 00:43:00,57.0,-99.9,-100.00,SSW,206,9.0,15.0,-999,0.00,,,0.00,2.000000,,2013-01-15 05:43:00,
2013-01-15 00:53:00,57.0,-99.9,-100.00,SSW,206,9.0,15.0,-999,0.00,,,0.00,2.000000,,2013-01-15 05:53:00,
2013-01-15 01:22:00,58.0,57.0,-100.00,WSW,252,7.0,15.0,96,0.00,,,0.00,0.000000,,2013-01-15 06:22:00,
2013-01-15 01:32:00,58.0,57.0,-100.00,WSW,252,7.0,15.0,96,0.00,,,0.00,0.000000,,2013-01-15 06:32:00,
2013-01-15 01:42:00,58.0,57.0,-100.00,WSW,252,7.0,15.0,96,0.00,,,0.00,0.000000,,2013-01-15 06:42:00,
2013-01-15 01:52:00,58.0,57.0,-100.00,WSW,252,7.0,15.0,96,0.00,,,0.00,0.000000,,2013-01-15 06:52:00,
2013-01-15 02:22:00,57.0,-99.9,-100.00,SW,224,8.0,12.0,-999,0.00,,,0.00,0.000000,,2013-01-15 07:22:00,
2013-01-15 02:33:00,57.0,-99.9,-100.00,SW,224,8.0,12.0,-999,0.00,,,0.00,0.000000,,2013-01-15 07:33:00,
2013-01-15 02:43:00,57.0,-99.9,-100.00,SW,224,8.0,12.0,-999,0.00,,,0.00,0.000000,,2013-01-15 07:43:00,
2013-01-15 02:53:00,57.0,-99.9,-100.00,SW,224,8.0,12.0,-999,0.00,,,0.00,0.000000,,2013-01-15 07:53:00,
2013-01-15 03:22:00,55.0,-99.9,-100.00,SSW,211,5.0,14.0,-999,0.00,,,0.00,0.000000,,2013-01-15 08:22:00,
2013-01-15 03:33:00,55.0,-99.9,-100.00,SSW,211,5.0,14.0,-999,0.00,,,0.00,0.000000,,2013-01-15 08:33:00,
2013-01-15 03:43:00,55.0,-99.9,-100.00,SSW,211,5.0,14.0,-999,0.00,,,0.00,0.000000,,2013-01-15 08:43:00,
2013-01-15 03:53:00,55.0,-99.9,-100.00,SSW,211,5.0,14.0,-999,0.00,,,0.00,0.000000,,2013-01-15 08:53:00,
2013-01-15 04:22:00,54.0,-99.9,-100.00,SSW,194,5.0,10.0,-999,0.00,,,0.00,0.000000,,2013-01-15 09:22:00,
2013-01-15 04:33:00,54.0,-99.9,-100.00,SSW,194,5.0,10.0,-999,0.00,,,0.00,0.000000,,2013-01-15 09:33:00,
2013-01-15 04:43:00,54.0,-99.9,-100.00,SSW,194,5.0,10.0,-999,0.00,,,0.00,0.000000,,2013-01-15 09:43:00,
2013-01-15 04:53:00,54.0,-99.9,-100.00,SSW,194,5.0,10.0,-999,0.00,,,0.00,0.000000,,2013-01-15 09:53:00,
2013-01-15 05:22:00,54.0,-99.9,-100.00,SSE,160,5.0,13.0,-999,0.00,,,0.00,0.000000,,2013-01-15 10:22:00,
2013-01-15 05:33:00,54.0,-99.9,-100.00,SSE,160,5.0,13.0,-999,0.00,,,0.00,0.000000,,2013-01-15 10:33:00,
2013-01-15 05:42:00,54.0,-99.9,-100.00,SSE,160,5.0,13.0,-999,0.00,,,0.00,0.000000,,2013-01-15 10:42:00,
2013-01-15 05:52:00,54.0,-99.9,-100.00,SSE,160,5.0,13.0,-999,0.00,,,0.00,0.000000,,2013-01-15 10:52:00,
2013-01-15 06:12:00,52.0,-99.9,-100.00,SE,130,5.0,9.0,-999,0.00,,,-99.99,0.000000,,2013-01-15 11:12:00,
2013-01-15 06:23:00,52.0,-99.9,-100.00,SE,130,5.0,9.0,-999,0.00,,,-99.99,0.000000,,2013-01-15 11:23:00,
2013-01-15 06:33:00,52.0,-99.9,-100.00,SE,130,5.0,9.0,-999,0.00,,,-99.99,0.000000,,2013-01-15 11:33:00,
2013-01-15 06:43:00,52.0,-99.9,-100.00,SE,130,5.0,9.0,-999,0.00,,,-99.99,0.000000,,2013-01-15 11:43:00,
2013-01-15 06:53:00,52.0,-99.9,-100.00,SE,130,5.0,9.0,-999,0.00,,,-99.99,0.000000,,2013-01-15 11:53:00,
2013-01-15 07:22:00,54.0,54.0,-100.00,SW,226,2.0,7.0,99,0.00,,,0.00,0.000000,,2013-01-15 12:22:00,
2013-01-15 07:32:00,54.0,54.0,-100.00,SW,226,2.0,7.0,99,0.00,,,0.00,0.000000,,2013-01-15 12:32:00,
2013-01-15 07:42:00,54.0,54.0,-100.00,SW,226,2.0,7.0,99,0.00,,,0.00,0.000000,,2013-01-15 12:42:00,
2013-01-15 07:53:00,54.0,54.0,-100.00,SW,226,2.0,7.0,99,0.00,,,0.00,0.000000,,2013-01-15 12:53:00,
2013-01-15 08:23:00,54.0,-99.9,-100.00,ESE,112,3.0,7.0,-999,0.00,,,0.00,0.000000,,2013-01-15 13:23:00,
2013-01-15 08:33:00,54.0,-99.9,-100.00,ESE,112,3.0,7.0,-999,0.00,,,0.00,0.000000,,2013-01-15 13:33:00,
2013-01-15 08:43:00,54.0,-99.9,-100.00,ESE,112,3.0,7.0,-999,0.00,,,0.00,0.000000,,2013-01-15 13:43:00,
2013-01-15 08:53:00,54.0,-99.9,-100.00,ESE,112,3.0,7.0,-999,0.00,,,0.00,0.000000,,2013-01-15 13:53:00,
2013-01-15 09:23:00,54.0,-99.9,-100.00,South,186,2.0,8.0,-999,0.00,,,0.00,0.000000,,2013-01-15 14:23:00,
2013-01-15 09:33:00,54.0,-99.9,-100.00,South,186,2.0,8.0,-999,0.00,,,0.00,0.000000,,2013-01-15 14:33:00,
2013-01-15 09:43:00,54.0,-99.9,-100.00,South,186,2.0,8.0,-999,0.00,,,0.00,0.000000,,2013-01-15 14:43:00,
2013-01-15 09:54:00,54.0,-99.9,-100.00,South,186,2.0,8.0,-999,0.00,,,0.00,0.000000,,2013-01-15 14:54:00,
2013-01-15 10:23:00,53.0,-99.9,-100.00,NE,55,1.0,5.0,-999,0.00,,,-99.99,0.000000,,2013-01-15 15:23:00,
2013-01-15 10:33:00,53.0,-99.9,-100.00,NE,55,1.0,5.0,-999,0.00,,,-99.99,0.000000,,2013-01-15 15:33:00,
2013-01-15 10:44:00,53.0,-99.9,-100.00,NE,55,1.0,5.0,-999,0.00,,,-99.99,0.000000,,2013-01-15 15:44:00,
2013-01-15 10:53:00,53.0,-99.9,-100.00,NE,55,1.0,5.0,-999,0.00,,,-99.99,0.000000,,2013-01-15 15:53:00,
2013-01-15 11:23:00,54.0,-99.9,-100.00,SSE,147,6.0,-999.0,-999,0.00,,,-99.99,,,2013-01-15 16:23:00,
2013-01-15 11:34:00,54.0,-99.9,-100.00,SSE,147,6.0,-999.0,-999,0.00,,,-99.99,,,2013-01-15 16:34:00,
2013-01-15 11:43:00,54.0,-99.9,-100.00,SSE,147,6.0,-999.0,-999,0.00,,,-99.99,,,2013-01-15 16:43:00,
2013-01-15 11:54:00,54.0,-99.9,-100.00,SSE,147,6.0,-999.0,-999,0.00,,,-99.99,,,2013-01-15 16:54:00,
2013-01-15 14:22:00,64.0,60.0,-100.00,SW,217,8.0,12.0,87,-99.99,,,0.00,273.000000,,2013-01-15 19:22:00,
2013-01-15 14:33:00,64.0,60.0,-100.00,SW,217,8.0,12.0,87,-99.99,,,0.00,273.000000,,2013-01-15 19:33:00,
2013-01-15 14:42:00,64.0,60.0,-100.00,SW,217,8.0,12.0,87,-99.99,,,0.00,273.000000,,2013-01-15 19:42:00,
2013-01-15 14:52:00,64.0,60.0,-100.00,SW,217,8.0,12.0,87,-99.99,,,0.00,273.000000,,2013-01-15 19:52:00,
2013-01-15 15:23:00,66.0,-99.9,-100.00,WSW,241,11.0,17.0,-999,0.00,,,0.00,555.000000,,2013-01-15 20:23:00,
2013-01-15 15:34:00,66.0,-99.9,-100.00,WSW,241,11.0,17.0,-999,0.00,,,0.00,555.000000,,2013-01-15 20:34:00,
2013-01-15 15:44:00,66.0,-99.9,-100.00,WSW,241,11.0,17.0,-999,0.00,,,0.00,555.000000,,2013-01-15 20:44:00,
2013-01-15 15:53:00,66.0,-99.9,-100.00,WSW,241,11.0,17.0,-999,0.00,,,0.00,555.000000,,2013-01-15 20:53:00,
2013-01-15 16:23:00,66.0,-99.9,-100.00,West,266,11.0,24.0,-999,0.00,,,0.00,572.000000,,2013-01-15 21:23:00,
2013-01-15 16:34:00,66.0,-99.9,-100.00,West,266,11.0,24.0,-999,0.00,,,0.00,572.000000,,2013-01-15 21:34:00,
2013-01-15 16:43:00,66.0,-99.9,-100.00,West,266,11.0,24.0,-999,0.00,,,0.00,572.000000,,2013-01-15 21:43:00,
2013-01-15 16:53:00,66.0,-99.9,-100.00,West,266,11.0,24.0,-999,0.00,,,0.00,572.000000,,2013-01-15 21:53:00,
2013-01-15 17:23:00,68.0,-99.9,-100.00,WSW,239,11.0,25.0,-999,0.00,,,0.00,703.000000,,2013-01-15 22:23:00,
2013-01-15 17:33:00,68.0,-99.9,-100.00,WSW,239,11.0,25.0,-999,0.00,,,0.00,703.000000,,2013-01-15 22:33:00,
2013-01-15 17:43:00,68.0,-99.9,-100.00,WSW,239,11.0,25.0,-999,0.00,,,0.00,703.000000,,2013-01-15 22:43:00,
2013-01-15 17:53:00,68.0,-99.9,-100.00,WSW,239,11.0,25.0,-999,0.00,,,0.00,703.000000,,2013-01-15 22:53:00,
2013-01-15 18:23:00,71.0,-99.9,-100.00,WSW,257,10.0,22.0,-999,0.00,,,0.00,871.000000,,2013-01-15 23:23:00,
2013-01-15 18:33:00,71.0,-99.9,-100.00,WSW,257,10.0,22.0,-999,0.00,,,0.00,871.000000,,2013-01-15 23:33:00,
2013-01-15 18:43:00,71.0,-99.9,-100.00,WSW,257,10.0,22.0,-999,0.00,,,0.00,871.000000,,2013-01-15 23:43:00,
2013-01-15 18:53:00,71.0,-99.9,-100.00,WSW,257,10.0,22.0,-999,0.00,,,0.00,871.000000,,2013-01-15 23:53:00,
2013-01-15 19:23:00,68.0,-99.9,-100.00,WSW,254,10.0,19.0,-999,0.00,,,0.00,763.000000,,2013-01-16 00:23:00,
2013-01-15 19:33:00,68.0,-99.9,-100.00,WSW,254,10.0,19.0,-999,0.00,,,0.00,763.000000,,2013-01-16 00:33:00,
2013-01-15 19:43:00,68.0,-99.9,-100.00,WSW,254,10.0,19.0,-999,0.00,,,0.00,763.000000,,2013-01-16 00:43:00,
2013-01-15 19:53:00,68.0,-99.9,-100.00,WSW,254,10.0,19.0,-999,0.00,,,0.00,763.000000,,2013-01-16 00:53:00,
2013-01-15 20:23:00,70.0,-99.9,-100.00,WSW,243,11.0,18.0,-999,0.00,,,0.00,637.000000,,2013-01-16 01:23:00,
2013-01-15 20:33:00,70.0,-99.9,-100.00,WSW,243,11.0,18.0,-999,0.00,,,0.00,637.000000,,2013-01-16 01:33:00,
2013-01-15 20:43:00,70.0,-99.9,-100.00,WSW,243,11.0,18.0,-999,0.00,,,0.00,637.000000,,2013-01-16 01:43:00,
2013-01-15 20:53:00,70.0,-99.9,-100.00,WSW,243,11.0,18.0,-999,0.00,,,0.00,637.000000,,2013-01-16 01:53:00,
2013-01-15 21:22:00,70.0,70.0,-100.00,West,260,10.0,20.0,99,0.00,,,0.00,573.000000,,2013-01-16 02:22:00,
2013-01-15 21:32:00,70.0,70.0,-100.00,West,260,10.0,20.0,99,0.00,,,0.00,573.000000,,2013-01-16 02:32:00,
2013-01-15 21:42:00,70.0,70.0,-100.00,West,260,10.0,20.0,99,0.00,,,0.00,573.000000,,2013-01-16 02:42:00,
2013-01-15 21:52:00,70.0,70.0,-100.00,West,260,10.0,20.0,99,0.00,,,0.00,573.000000,,2013-01-16 02:52:00,
2013-01-15 22:23:00,69.0,-99.9,-100.00,SE,143,4.0,20.0,-999,0.00,,,-99.99,399.000000,,2013-01-16 03:23:00,
2013-01-15 22:33:00,69.0,-99.9,-100.00,SE,143,4.0,20.0,-999,0.00,,,-99.99,399.000000,,2013-01-16 03:33:00,
2013-01-15 22:43:00,69.0,-99.9,-100.00,SE,143,4.0,20.0,-999,0.00,,,-99.99,399.000000,,2013-01-16 03:43:00,
2013-01-15 22:53:00,69.0,-99.9,-100.00,SE,143,4.0,20.0,-999,0.00,,,-99.99,399.000000,,2013-01-16 03:53:00,
2013-01-15 23:22:00,64.0,-99.9,-100.00,WSW,253,6.0,14.0,-999,0.00,,,0.00,150.000000,,2013-01-16 04:22:00,
2013-01-15 23:33:00,64.0,-99.9,-100.00,WSW,253,6.0,14.0,-999,0.00,,,0.00,150.000000,,2013-01-16 04:33:00,
2013-01-15 23:42:00,64.0,-99.9,-100.00,WSW,253,6.0,14.0,-999,0.00,,,0.00,150.000000,,2013-01-16 04:42:00,
2013-01-15 23:53:00,64.0,-99.9,-100.00,WSW,253,6.0,14.0,-999,0.00,,,0.00,150.000000,,2013-01-16 04:53:00,